KMRY

Monterey Regional Airport

Monterey, California, USA
METAR KMRY 190621Z AUTO 23005KT 3SM -RA BR SCT003 BKN018 OVC025 12/11 A3012 RMK AO2 P0004 T01170111 TSNO
Observed Flight Rules
Jan-19 @ 06:21 UTC (44 minutes ago) Marginal Visual Flight Rules
Wind Visibility Clouds Conditions
230° at 5 knots 3 miles
  • Scattered at 300' AGL
  • Broken at 1,800' AGL
  • Overcast at 2,500' AGL
  • Light Rain
  • Mist
Temperatures Readings Precipitation
Current 12°C / 54°F
Dewpoint 11°C / 52°F
Humidity 94%
Altimeter 30.12" Hg
Pressure 1020 hPa
Elevation 66
Current Rain 0.04
METAR KMRY 190621Z AUTO 23005KT 3SM -RA BR SCT003 BKN018 OVC025 12/11 A3012 RMK AO2 P0004 T01170111 TSNO
Observed Flight Rules
Jan-19 @ 06:21 UTC
(44 minutes ago)
MVFR
Wind Visibility
230° at 5 knots 3 miles
Clouds
  • Scattered at 300' AGL
  • Broken at 1,800' AGL
  • Overcast at 2,500' AGL
Conditions
  • Light Rain
  • Mist
Temperature Dewpoint
12°C / 54°F 11°C / 52°F
Humidity Altimeter Pressure
94% 30.12" Hg 1020 hPa
Current Rain
0.04